Terminal Aerodrome Forecast
Issued by NWS

Home | Current Version | Previous Version | Text Only | Print | Product List | Glossary Off
Versions: 1 2 3 4 5 6 7 8 9 10 11 12 13 14 15 16 17 18 19

000
FTUS42 KMHX 180937 AAA
TAFPGV
TAF AMD
KPGV 180937Z 1810/1906 20006KT P6SM OVC005
     FM181200 19006KT P6SM BKN040
     FM181800 20007KT P6SM VCTS BKN040CB
     FM190100 19007KT P6SM SCT050
      AMD LTD TO CLD VIS AND WIND=

USA.gov is the U.S. government's official web portal to all federal, state and local government web resources and services.